Time;durP1;ratioP1;P1;durP2;ratioP2;P2;SDS_P1;SDS_P2;PMS_P1;PMS_P2;Temp;Humidity;BMP_temperature;BMP_pressure;BME280_temperature;BME280_humidity;BME280_pressure;Samples;Min_cycle;Max_cycle;Signal;HPM_P1;HPM_P2
2023/08/03 00:00:29;;;;;;;4.50;2.40;;;;;;;;;;6071490;29;20609;-79
2023/08/03 00:03:33;;;;;;;2.65;2.45;;;;;;;;;;6072443;29;20250;-78
2023/08/03 00:06:37;;;;;;;3.17;2.88;;;;;;;;;;6072834;29;20289;-78
2023/08/03 00:09:43;;;;;;;2.35;2.35;;;;;;;;;;6075829;29;20310;-77
2023/08/03 00:12:47;;;;;;;10.00;2.80;;;;;;;;;;6072525;29;20541;-78
2023/08/03 00:15:53;;;;;;;9.07;2.72;;;;;;;;;;6089780;29;20300;-78
2023/08/03 00:18:56;;;;;;;10.00;2.38;;;;;;;;;;6095174;29;20292;-78
2023/08/03 00:22:00;;;;;;;10.35;2.88;;;;;;;;;;6095434;29;20272;-79
2023/08/03 00:25:04;;;;;;;13.30;2.70;;;;;;;;;;6095444;29;20312;-77
2023/08/03 00:28:08;;;;;;;4.47;2.80;;;;;;;;;;6095988;29;20517;-77
2023/08/03 00:31:14;;;;;;;4.03;2.08;;;;;;;;;;6096166;29;20304;-78
2023/08/03 00:34:17;;;;;;;2.15;2.05;;;;;;;;;;6096450;29;20296;-78
2023/08/03 00:37:21;;;;;;;4.63;2.50;;;;;;;;;;6080301;29;20275;-78
2023/08/03 00:40:25;;;;;;;2.90;2.22;;;;;;;;;;6096921;29;20304;-78
2023/08/03 00:43:29;;;;;;;2.05;2.05;;;;;;;;;;6097253;29;20233;-77
2023/08/03 00:46:34;;;;;;;2.63;2.13;;;;;;;;;;6097288;29;20281;-78
2023/08/03 00:49:38;;;;;;;4.68;2.08;;;;;;;;;;6098537;29;20300;-78
2023/08/03 00:52:42;;;;;;;3.67;2.00;;;;;;;;;;6097175;29;20277;-78
2023/08/03 00:55:46;;;;;;;3.22;2.17;;;;;;;;;;6097186;29;20430;-79
2023/08/03 00:58:50;;;;;;;3.25;2.08;;;;;;;;;;6096430;29;20296;-78
2023/08/03 01:01:55;;;;;;;1.75;1.70;;;;;;;;;;6098054;29;20273;-79
2023/08/03 01:04:59;;;;;;;1.90;1.90;;;;;;;;;;6097025;29;20308;-78
2023/08/03 01:08:03;;;;;;;1.80;1.70;;;;;;;;;;6096740;29;20268;-78
2023/08/03 01:11:07;;;;;;;1.95;1.95;;;;;;;;;;6098774;29;20316;-79
2023/08/03 01:14:11;;;;;;;2.10;2.00;;;;;;;;;;6091209;29;20296;-79
2023/08/03 01:17:16;;;;;;;1.95;1.95;;;;;;;;;;6060120;29;20277;-76
2023/08/03 01:20:22;;;;;;;2.00;2.00;;;;;;;;;;6074264;29;20304;-77
2023/08/03 01:23:27;;;;;;;1.90;1.90;;;;;;;;;;6074274;29;20273;-78
2023/08/03 01:26:31;;;;;;;2.03;1.88;;;;;;;;;;6073104;29;20281;-78
2023/08/03 01:29:34;;;;;;;1.90;1.80;;;;;;;;;;6071403;29;20321;-78
2023/08/03 01:32:39;;;;;;;1.80;1.80;;;;;;;;;;6070917;29;20250;-77
2023/08/03 01:35:42;;;;;;;1.90;1.90;;;;;;;;;;6078436;29;20306;-78
2023/08/03 01:38:55;;;;;;;2.05;1.90;;;;;;;;;;6071855;29;20296;-79
2023/08/03 01:41:59;;;;;;;2.10;2.00;;;;;;;;;;6071679;29;20464;-77
2023/08/03 01:45:04;;;;;;;3.92;2.10;;;;;;;;;;6054335;29;20451;-78
2023/08/03 01:48:08;;;;;;;1.88;1.67;;;;;;;;;;6070808;29;20278;-77
2023/08/03 01:51:12;;;;;;;1.63;1.63;;;;;;;;;;6071137;29;20301;-77
2023/08/03 01:54:17;;;;;;;1.90;1.90;;;;;;;;;;6070604;29;20495;-78
2023/08/03 01:57:21;;;;;;;1.90;1.80;;;;;;;;;;6071801;29;20241;-78
2023/08/03 02:00:25;;;;;;;5.93;2.05;;;;;;;;;;6069747;29;20297;-78
2023/08/03 02:03:29;;;;;;;2.38;1.85;;;;;;;;;;6070484;29;20444;-77
2023/08/03 02:06:33;;;;;;;2.35;2.10;;;;;;;;;;6062368;29;20326;-77
2023/08/03 02:09:38;;;;;;;2.13;1.92;;;;;;;;;;6047867;29;20311;-78
2023/08/03 02:12:42;;;;;;;2.47;2.25;;;;;;;;;;6048693;29;20251;-77
2023/08/03 02:15:46;;;;;;;1.83;1.73;;;;;;;;;;6065264;29;20312;-78
2023/08/03 02:18:50;;;;;;;1.80;1.80;;;;;;;;;;6070674;29;20529;-77
2023/08/03 02:21:54;;;;;;;1.90;1.90;;;;;;;;;;6084751;29;20404;-79
2023/08/03 02:24:59;;;;;;;2.78;2.20;;;;;;;;;;6068823;29;20472;-78
2023/08/03 02:28:04;;;;;;;2.50;2.30;;;;;;;;;;6084728;29;20277;-78
2023/08/03 02:31:08;;;;;;;2.30;2.05;;;;;;;;;;6069856;29;20308;-79
2023/08/03 02:34:18;;;;;;;2.35;2.30;;;;;;;;;;6083841;29;20293;-77
2023/08/03 02:37:24;;;;;;;3.35;2.35;;;;;;;;;;6085983;29;20281;-79
2023/08/03 02:40:30;;;;;;;2.08;1.98;;;;;;;;;;6069926;29;20313;-78
2023/08/03 02:43:34;;;;;;;2.22;2.20;;;;;;;;;;6086257;29;20293;-78
2023/08/03 02:46:39;;;;;;;2.22;2.15;;;;;;;;;;6089237;29;20274;-78
2023/08/03 02:49:43;;;;;;;2.58;1.73;;;;;;;;;;6088857;29;20608;-78
2023/08/03 02:52:47;;;;;;;2.35;2.20;;;;;;;;;;6074436;29;20418;-79
2023/08/03 02:55:53;;;;;;;2.60;2.30;;;;;;;;;;6089176;29;20300;-78
2023/08/03 02:58:57;;;;;;;2.38;2.20;;;;;;;;;;6091457;29;20305;-78
2023/08/03 03:02:10;;;;;;;2.30;2.30;;;;;;;;;;6078228;29;20289;-78
2023/08/03 03:05:16;;;;;;;2.72;2.63;;;;;;;;;;6082154;29;20317;-78
2023/08/03 03:08:23;;;;;;;2.63;2.50;;;;;;;;;;6074689;29;20313;-78
2023/08/03 03:11:29;;;;;;;3.08;2.97;;;;;;;;;;6084969;29;20281;-78
2023/08/03 03:14:35;;;;;;;3.63;3.42;;;;;;;;;;6095654;29;20569;-78
2023/08/03 03:17:42;;;;;;;3.78;3.47;;;;;;;;;;6096132;29;20277;-78
2023/08/03 03:20:46;;;;;;;3.92;3.47;;;;;;;;;;6078058;29;20301;-77
2023/08/03 03:23:50;;;;;;;4.22;3.58;;;;;;;;;;6072894;29;20633;-79
2023/08/03 03:26:57;;;;;;;3.97;3.70;;;;;;;;;;6074169;29;20281;-79
2023/08/03 03:30:01;;;;;;;4.10;3.60;;;;;;;;;;6072886;29;20589;-79
2023/08/03 03:33:08;;;;;;;5.35;4.25;;;;;;;;;;6072906;29;20273;-78
2023/08/03 03:36:16;;;;;;;4.47;4.03;;;;;;;;;;6063399;29;20269;-79
2023/08/03 03:39:20;;;;;;;5.18;3.65;;;;;;;;;;6095584;29;20303;-78
2023/08/03 03:42:27;;;;;;;5.88;3.92;;;;;;;;;;6080610;29;20280;-78
2023/08/03 03:45:31;;;;;;;4.53;4.10;;;;;;;;;;6096079;29;20303;-79
2023/08/03 03:48:35;;;;;;;5.07;4.22;;;;;;;;;;6097231;29;20300;-78
2023/08/03 03:51:40;;;;;;;5.03;4.30;;;;;;;;;;6096454;29;20273;-78
2023/08/03 03:54:46;;;;;;;4.53;4.18;;;;;;;;;;6097238;29;20297;-78
2023/08/03 03:57:52;;;;;;;5.88;4.57;;;;;;;;;;6096132;29;20436;-77
2023/08/03 04:00:56;;;;;;;5.85;4.40;;;;;;;;;;6096487;29;20277;-78
2023/08/03 04:04:00;;;;;;;10.50;4.53;;;;;;;;;;6096951;29;20596;-80
2023/08/03 04:07:06;;;;;;;8.02;4.95;;;;;;;;;;6097793;29;20296;-78
2023/08/03 04:10:10;;;;;;;4.90;4.50;;;;;;;;;;6091617;29;20302;-78
2023/08/03 04:13:16;;;;;;;3.53;3.35;;;;;;;;;;6072790;29;20288;-79
2023/08/03 04:16:20;;;;;;;3.67;3.38;;;;;;;;;;6074309;29;20280;-79
2023/08/03 04:19:25;;;;;;;6.82;4.22;;;;;;;;;;6073675;29;20388;-78
2023/08/03 04:22:29;;;;;;;5.32;4.30;;;;;;;;;;6073880;29;20250;-79
2023/08/03 04:25:35;;;;;;;4.53;4.18;;;;;;;;;;6079192;29;20305;-79
2023/08/03 04:29:02;;;;;;;5.35;4.35;;;;;;;;;;6072515;29;20305;-76
2023/08/03 04:32:08;;;;;;;4.57;4.28;;;;;;;;;;6072207;29;20269;-78
2023/08/03 04:35:14;;;;;;;4.20;4.00;;;;;;;;;;6072881;29;20294;-77
2023/08/03 04:38:24;;;;;;;4.72;4.10;;;;;;;;;;6071991;29;20301;-78
2023/08/03 04:41:32;;;;;;;9.40;4.00;;;;;;;;;;6072328;29;20269;-78
2023/08/03 04:44:37;;;;;;;4.65;4.25;;;;;;;;;;6071217;29;20293;-77
2023/08/03 04:47:42;;;;;;;5.05;3.72;;;;;;;;;;6055843;29;20289;-79
2023/08/03 04:50:46;;;;;;;4.03;3.72;;;;;;;;;;6072741;29;20392;-79
2023/08/03 04:53:52;;;;;;;4.03;3.72;;;;;;;;;;6071926;29;20300;-79
2023/08/03 04:57:00;;;;;;;3.75;3.53;;;;;;;;;;6072745;29;20557;-78
2023/08/03 05:00:11;;;;;;;5.35;3.65;;;;;;;;;;6071480;29;20300;-79
2023/08/03 05:03:15;;;;;;;4.10;3.58;;;;;;;;;;6071567;29;20452;-78
2023/08/03 05:06:20;;;;;;;4.07;3.33;;;;;;;;;;6072246;29;20317;-78
2023/08/03 05:09:24;;;;;;;3.50;2.70;;;;;;;;;;6071930;29;20309;-79
2023/08/03 05:12:27;;;;;;;6.78;3.17;;;;;;;;;;6074498;29;20237;-80
2023/08/03 05:15:33;;;;;;;4.18;3.08;;;;;;;;;;6071985;29;20305;-79
2023/08/03 05:18:37;;;;;;;3.40;3.10;;;;;;;;;;6072585;29;20297;-78
2023/08/03 05:21:40;;;;;;;2.92;2.80;;;;;;;;;;6074676;29;20237;-79
2023/08/03 05:24:45;;;;;;;4.18;3.00;;;;;;;;;;6072708;29;20302;-81
2023/08/03 05:27:48;;;;;;;3.17;2.90;;;;;;;;;;6073542;29;20374;-79
2023/08/03 05:30:53;;;;;;;4.30;3.22;;;;;;;;;;6073961;29;20363;-80
2023/08/03 05:33:58;;;;;;;4.93;3.00;;;;;;;;;;6074101;29;20297;-79
2023/08/03 05:37:02;;;;;;;3.90;2.65;;;;;;;;;;6057290;29;20277;-78
2023/08/03 05:40:07;;;;;;;3.30;3.00;;;;;;;;;;6074424;29;20302;-79
2023/08/03 05:43:12;;;;;;;3.15;3.05;;;;;;;;;;6073155;29;20305;-78
2023/08/03 05:46:18;;;;;;;4.15;3.17;;;;;;;;;;6072241;29;20246;-79
2023/08/03 05:49:25;;;;;;;5.97;3.80;;;;;;;;;;6076301;29;20297;-79
2023/08/03 05:52:29;;;;;;;6.72;2.88;;;;;;;;;;6077664;29;20249;-79
2023/08/03 05:55:33;;;;;;;5.22;3.10;;;;;;;;;;6071434;29;20316;-79
2023/08/03 05:58:37;;;;;;;2.72;2.53;;;;;;;;;;6071094;29;20300;-78
2023/08/03 06:01:43;;;;;;;3.78;2.67;;;;;;;;;;6072693;29;20545;-78
2023/08/03 06:04:47;;;;;;;6.53;2.67;;;;;;;;;;6071903;29;20300;-80
2023/08/03 06:07:51;;;;;;;2.85;2.60;;;;;;;;;;6071143;29;20303;-79
2023/08/03 06:10:56;;;;;;;3.47;2.92;;;;;;;;;;6081577;29;20261;-80
2023/08/03 06:14:00;;;;;;;3.05;2.65;;;;;;;;;;6094018;29;20304;-80
2023/08/03 06:17:06;;;;;;;3.17;2.92;;;;;;;;;;6096204;29;20241;-77
2023/08/03 06:20:13;;;;;;;4.60;2.78;;;;;;;;;;6093286;29;20589;-79
2023/08/03 06:23:19;;;;;;;3.08;2.72;;;;;;;;;;6093147;29;20292;-79
2023/08/03 06:26:23;;;;;;;2.80;2.60;;;;;;;;;;6093571;29;20443;-78
2023/08/03 06:29:29;;;;;;;2.60;2.45;;;;;;;;;;6093193;29;20597;-79
2023/08/03 06:32:34;;;;;;;5.90;2.80;;;;;;;;;;6093535;29;20533;-79
2023/08/03 06:35:39;;;;;;;2.80;2.60;;;;;;;;;;6092816;29;20308;-79
2023/08/03 06:38:43;;;;;;;3.95;2.75;;;;;;;;;;6091417;29;20305;-79
2023/08/03 06:41:47;;;;;;;4.25;2.95;;;;;;;;;;6092265;29;20272;-81
2023/08/03 06:44:53;;;;;;;2.80;2.70;;;;;;;;;;6091772;29;20316;-79
2023/08/03 06:47:58;;;;;;;7.88;3.00;;;;;;;;;;6091714;29;20454;-79
2023/08/03 06:51:02;;;;;;;3.17;2.92;;;;;;;;;;6093516;29;20262;-79
2023/08/03 06:54:06;;;;;;;3.42;3.20;;;;;;;;;;6092865;29;20304;-80
2023/08/03 06:57:10;;;;;;;4.60;3.25;;;;;;;;;;6092851;29;20272;-78
2023/08/03 07:00:15;;;;;;;3.10;2.95;;;;;;;;;;6093394;29;20296;-78
2023/08/03 07:03:20;;;;;;;3.05;2.95;;;;;;;;;;6092705;29;20295;-80
2023/08/03 07:06:24;;;;;;;3.13;2.92;;;;;;;;;;6092828;29;20296;-80
2023/08/03 07:09:28;;;;;;;4.00;3.28;;;;;;;;;;6092988;29;20295;-79
2023/08/03 07:12:32;;;;;;;3.42;3.13;;;;;;;;;;6070759;29;20237;-79
2023/08/03 07:15:36;;;;;;;3.45;3.20;;;;;;;;;;6091172;29;20300;-77
2023/08/03 07:18:41;;;;;;;4.60;3.30;;;;;;;;;;6094398;29;20608;-78
2023/08/03 07:21:45;;;;;;;3.42;3.33;;;;;;;;;;6093428;29;20248;-80
2023/08/03 07:24:50;;;;;;;5.20;3.78;;;;;;;;;;6093185;29;20309;-80
2023/08/03 07:27:54;;;;;;;3.58;3.25;;;;;;;;;;6093458;29;20264;-80
2023/08/03 07:30:58;;;;;;;4.22;3.85;;;;;;;;;;6079892;29;20272;-78
2023/08/03 07:34:03;;;;;;;3.40;3.17;;;;;;;;;;6097689;29;20348;-80
2023/08/03 07:37:07;;;;;;;3.55;3.35;;;;;;;;;;6098349;29;20245;-79
2023/08/03 07:40:11;;;;;;;4.25;3.38;;;;;;;;;;6097784;29;20305;-80
2023/08/03 07:43:15;;;;;;;4.07;3.55;;;;;;;;;;6098012;29;20604;-78
2023/08/03 07:46:19;;;;;;;8.55;3.78;;;;;;;;;;6097418;29;20296;-78
2023/08/03 07:49:25;;;;;;;4.28;4.07;;;;;;;;;;6098687;29;20300;-80
2023/08/03 07:52:29;;;;;;;3.72;3.47;;;;;;;;;;6099325;29;20257;-79
2023/08/03 07:55:33;;;;;;;3.67;3.47;;;;;;;;;;6098157;29;20352;-81
2023/08/03 07:58:37;;;;;;;4.45;4.10;;;;;;;;;;6099266;29;20296;-79
2023/08/03 08:01:43;;;;;;;3.65;3.47;;;;;;;;;;6084265;29;20269;-79
2023/08/03 08:04:52;;;;;;;5.47;4.15;;;;;;;;;;6097288;29;20297;-80
2023/08/03 08:07:56;;;;;;;6.38;4.38;;;;;;;;;;6099436;29;20289;-79
2023/08/03 08:11:00;;;;;;;4.50;4.07;;;;;;;;;;6099641;29;20245;-79
2023/08/03 08:14:34;;;;;;;4.68;4.30;;;;;;;;;;6097891;29;20301;-79
2023/08/03 08:17:38;;;;;;;4.45;4.13;;;;;;;;;;6096955;29;20290;-81
2023/08/03 08:20:44;;;;;;;4.25;3.95;;;;;;;;;;6097246;29;20308;-79
2023/08/03 08:23:48;;;;;;;5.43;4.38;;;;;;;;;;6096606;29;20304;-79
2023/08/03 08:26:52;;;;;;;6.18;4.60;;;;;;;;;;6097057;29;20560;-79
2023/08/03 08:30:00;;;;;;;5.28;4.85;;;;;;;;;;6096415;29;20301;-79
2023/08/03 08:33:04;;;;;;;4.78;4.38;;;;;;;;;;6095891;29;20246;-79
2023/08/03 08:36:09;;;;;;;4.18;3.97;;;;;;;;;;6097698;29;20265;-79
2023/08/03 08:39:13;;;;;;;4.78;4.45;;;;;;;;;;6099599;29;20355;-80
2023/08/03 08:42:17;;;;;;;4.65;4.35;;;;;;;;;;6103847;29;20240;-78
2023/08/03 08:45:21;;;;;;;5.10;4.47;;;;;;;;;;6095017;29;20301;-79
2023/08/03 08:48:25;;;;;;;5.20;4.80;;;;;;;;;;6096237;29;20296;-78
2023/08/03 08:51:34;;;;;;;4.60;4.15;;;;;;;;;;6097757;29;20241;-79
2023/08/03 08:54:40;;;;;;;9.50;5.00;;;;;;;;;;6095614;29;20545;-80
2023/08/03 08:57:47;;;;;;;4.72;4.53;;;;;;;;;;6097273;29;20257;-78
2023/08/03 09:01:03;;;;;;;5.35;4.88;;;;;;;;;;6096932;29;20277;-79
2023/08/03 09:04:07;;;;;;;4.90;4.60;;;;;;;;;;6096438;29;20332;-79
2023/08/03 09:07:17;;;;;;;4.60;4.30;;;;;;;;;;6097570;29;20301;-79
2023/08/03 09:10:21;;;;;;;6.22;5.22;;;;;;;;;;6096757;29;20304;-79
2023/08/03 09:13:27;;;;;;;4.90;4.45;;;;;;;;;;6096952;29;20297;-78
2023/08/03 09:16:31;;;;;;;5.25;4.63;;;;;;;;;;6097565;29;20244;-78
2023/08/03 09:19:36;;;;;;;4.57;4.28;;;;;;;;;;6095536;29;20606;-78
2023/08/03 09:22:43;;;;;;;5.38;4.97;;;;;;;;;;6096178;29;20253;-79
2023/08/03 09:25:52;;;;;;;5.15;4.78;;;;;;;;;;6095896;29;20316;-79
2023/08/03 09:28:56;;;;;;;5.35;4.90;;;;;;;;;;6095272;29;20300;-77
2023/08/03 09:32:02;;;;;;;5.30;4.43;;;;;;;;;;6099470;29;20245;-79
2023/08/03 09:35:16;;;;;;;5.05;4.45;;;;;;;;;;6098620;29;20297;-78
2023/08/03 09:38:30;;;;;;;4.93;4.63;;;;;;;;;;6099261;29;20296;-78
2023/08/03 09:41:36;;;;;;;4.82;4.47;;;;;;;;;;6100869;29;20242;-79
2023/08/03 09:44:43;;;;;;;4.70;4.30;;;;;;;;;;6098634;29;20604;-77
2023/08/03 09:47:49;;;;;;;4.38;4.20;;;;;;;;;;6083248;29;20573;-77
2023/08/03 09:50:55;;;;;;;8.90;5.45;;;;;;;;;;6098630;29;20486;-77
2023/08/03 09:54:12;;;;;;;4.95;4.13;;;;;;;;;;6099444;29;20299;-77
2023/08/03 09:57:20;;;;;;;5.07;4.60;;;;;;;;;;6099039;29;20472;-79
2023/08/03 10:00:26;;;;;;;7.80;4.38;;;;;;;;;;6099915;29;20308;-79
2023/08/03 10:03:31;;;;;;;8.32;5.03;;;;;;;;;;6100180;29;20304;-79
2023/08/03 10:06:38;;;;;;;6.15;5.00;;;;;;;;;;6105631;29;20312;-78
2023/08/03 10:09:45;;;;;;;10.90;4.90;;;;;;;;;;6100028;29;20292;-78
2023/08/03 10:12:57;;;;;;;5.22;4.68;;;;;;;;;;6076818;29;20246;-78
2023/08/03 10:16:02;;;;;;;4.80;4.40;;;;;;;;;;6077935;29;20243;-79
2023/08/03 10:19:07;;;;;;;4.93;4.63;;;;;;;;;;6077310;29;20293;-78
2023/08/03 10:22:11;;;;;;;4.43;4.10;;;;;;;;;;6061869;29;20294;-77
2023/08/03 10:25:20;;;;;;;5.20;4.78;;;;;;;;;;6077054;29;20293;-79
2023/08/03 10:28:24;;;;;;;5.72;4.43;;;;;;;;;;6078140;29;20313;-76
2023/08/03 10:31:28;;;;;;;4.75;4.30;;;;;;;;;;6078063;29;20251;-80
2023/08/03 10:34:32;;;;;;;5.05;4.60;;;;;;;;;;6075751;29;20609;-80
2023/08/03 10:37:36;;;;;;;5.20;4.28;;;;;;;;;;6077279;29;20234;-79
2023/08/03 10:40:41;;;;;;;5.70;4.28;;;;;;;;;;6077023;29;20301;-79
2023/08/03 10:44:25;;;;;;;4.60;4.40;;;;;;;;;;6079543;29;20293;-77
2023/08/03 10:47:31;;;;;;;4.90;4.60;;;;;;;;;;6078529;29;20266;-79
2023/08/03 10:51:00;;;;;;;6.63;4.90;;;;;;;;;;6078052;29;20305;-79
2023/08/03 10:54:06;;;;;;;4.88;4.50;;;;;;;;;;6078269;29;20325;-78
2023/08/03 10:57:13;;;;;;;4.50;4.20;;;;;;;;;;6078252;29;20257;-79
2023/08/03 11:00:17;;;;;;;4.78;3.63;;;;;;;;;;6078854;29;20308;-76
2023/08/03 11:03:21;;;;;;;5.25;4.13;;;;;;;;;;6080228;29;20289;-74
2023/08/03 11:06:25;;;;;;;4.45;4.00;;;;;;;;;;6084657;29;20294;-80
2023/08/03 11:09:30;;;;;;;4.60;4.30;;;;;;;;;;6085113;29;20294;-80
2023/08/03 11:12:36;;;;;;;5.07;4.10;;;;;;;;;;6068374;29;20263;-79
2023/08/03 11:15:40;;;;;;;7.15;4.13;;;;;;;;;;6080570;29;20316;-79
2023/08/03 11:18:45;;;;;;;4.63;4.20;;;;;;;;;;6081014;29;20296;-77
2023/08/03 11:21:49;;;;;;;6.82;4.50;;;;;;;;;;6077885;29;20237;-78
2023/08/03 11:24:56;;;;;;;4.55;4.25;;;;;;;;;;6076640;29;20297;-79
2023/08/03 11:28:01;;;;;;;5.25;4.30;;;;;;;;;;6076958;29;20278;-82
2023/08/03 11:31:15;;;;;;;6.30;4.35;;;;;;;;;;6085785;29;20234;-76
2023/08/03 11:34:20;;;;;;;4.43;3.90;;;;;;;;;;6078463;29;20306;-81
2023/08/03 11:37:24;;;;;;;3.63;3.33;;;;;;;;;;6080396;29;20242;-78
2023/08/03 11:40:28;;;;;;;3.80;3.50;;;;;;;;;;6083604;29;20294;-78
2023/08/03 11:43:33;;;;;;;8.52;4.10;;;;;;;;;;6063421;29;20486;-77
2023/08/03 11:46:37;;;;;;;2.55;2.38;;;;;;;;;;6082469;29;20233;-77
2023/08/03 11:49:41;;;;;;;2.65;2.53;;;;;;;;;;6080532;29;20297;-76
2023/08/03 11:52:45;;;;;;;4.47;3.22;;;;;;;;;;6074802;29;20469;-77
2023/08/03 11:55:49;;;;;;;3.60;2.53;;;;;;;;;;6075091;29;20298;-77
2023/08/03 11:58:56;;;;;;;3.30;3.05;;;;;;;;;;6066164;29;20304;-77
2023/08/03 12:02:02;;;;;;;5.53;2.90;;;;;;;;;;6074814;29;20250;-76
2023/08/03 12:05:07;;;;;;;3.20;2.10;;;;;;;;;;6072727;29;20296;-76
2023/08/03 12:08:17;;;;;;;4.53;2.40;;;;;;;;;;6071804;29;20293;-74
2023/08/03 12:11:21;;;;;;;2.45;2.35;;;;;;;;;;6085789;29;20248;-74
2023/08/03 12:14:29;;;;;;;2.30;2.20;;;;;;;;;;6094264;29;20296;-76
2023/08/03 12:17:33;;;;;;;3.95;2.67;;;;;;;;;;6097528;29;20340;-76
2023/08/03 12:20:37;;;;;;;3.42;2.42;;;;;;;;;;6098457;29;20312;-76
2023/08/03 12:23:42;;;;;;;6.03;2.40;;;;;;;;;;6097576;29;20601;-76
2023/08/03 12:26:46;;;;;;;5.85;2.50;;;;;;;;;;6096103;29;20252;-76
2023/08/03 12:29:54;;;;;;;6.68;2.95;;;;;;;;;;6096276;29;20308;-76
2023/08/03 12:32:58;;;;;;;6.88;2.53;;;;;;;;;;6095380;29;20241;-77
2023/08/03 12:36:02;;;;;;;4.32;2.42;;;;;;;;;;6097125;29;20237;-77
2023/08/03 12:39:06;;;;;;;4.97;2.67;;;;;;;;;;6096445;29;20308;-79
2023/08/03 12:42:13;;;;;;;7.22;2.72;;;;;;;;;;6097703;29;20242;-77
2023/08/03 12:45:18;;;;;;;5.63;3.00;;;;;;;;;;6096988;29;20304;-76
2023/08/03 12:48:22;;;;;;;8.73;2.80;;;;;;;;;;6096925;29;20597;-76
2023/08/03 12:51:26;;;;;;;6.45;2.42;;;;;;;;;;6095446;29;20249;-76
2023/08/03 12:54:30;;;;;;;2.80;2.20;;;;;;;;;;6094023;29;20304;-78
2023/08/03 12:57:34;;;;;;;2.65;2.30;;;;;;;;;;6099423;29;20273;-79
2023/08/03 13:00:39;;;;;;;4.28;2.00;;;;;;;;;;6096078;29;20300;-79
2023/08/03 13:03:43;;;;;;;4.97;2.78;;;;;;;;;;6096504;29;20307;-79
2023/08/03 13:06:47;;;;;;;3.03;1.67;;;;;;;;;;6096785;29;20298;-78
2023/08/03 13:09:51;;;;;;;2.97;2.40;;;;;;;;;;6096394;29;20309;-78
2023/08/03 13:12:55;;;;;;;3.85;2.40;;;;;;;;;;6073038;29;20246;-79
2023/08/03 13:16:06;;;;;;;2.92;2.45;;;;;;;;;;6076308;29;20250;-78
2023/08/03 13:19:10;;;;;;;5.88;2.58;;;;;;;;;;6072203;29;20300;-79
2023/08/03 13:22:14;;;;;;;9.38;3.05;;;;;;;;;;6074470;29;20249;-78
2023/08/03 13:25:18;;;;;;;8.18;3.58;;;;;;;;;;6073235;29;20300;-79
2023/08/03 13:28:21;;;;;;;6.85;3.42;;;;;;;;;;6070728;29;20309;-78
2023/08/03 13:31:27;;;;;;;4.72;2.53;;;;;;;;;;6071852;29;20538;-78
2023/08/03 13:34:31;;;;;;;11.02;3.30;;;;;;;;;;6072764;29;20596;-77
2023/08/03 13:37:34;;;;;;;8.10;3.28;;;;;;;;;;6072319;29;20245;-78
2023/08/03 13:40:38;;;;;;;6.22;3.28;;;;;;;;;;6072267;29;20312;-80
2023/08/03 13:43:42;;;;;;;5.00;2.78;;;;;;;;;;6071089;29;20307;-79
2023/08/03 13:46:47;;;;;;;5.28;3.00;;;;;;;;;;6072771;29;20241;-78
2023/08/03 13:49:53;;;;;;;7.40;3.38;;;;;;;;;;6072765;29;20317;-79
2023/08/03 13:52:57;;;;;;;11.52;3.30;;;;;;;;;;6070457;29;20272;-78
2023/08/03 13:56:01;;;;;;;4.10;2.45;;;;;;;;;;6072087;29;20245;-79
2023/08/03 13:59:05;;;;;;;4.32;3.35;;;;;;;;;;6070568;29;20302;-79
2023/08/03 14:02:11;;;;;;;11.60;3.50;;;;;;;;;;6071139;29;20245;-79
2023/08/03 14:05:16;;;;;;;6.35;3.53;;;;;;;;;;6069662;29;20301;-79
2023/08/03 14:08:40;;;;;;;10.65;4.10;;;;;;;;;;6069924;29;20305;-79
2023/08/03 14:11:47;;;;;;;7.95;4.15;;;;;;;;;;6086328;29;20253;-79
2023/08/03 14:14:53;;;;;;;10.50;4.03;;;;;;;;;;6092960;29;20296;-79
2023/08/03 14:17:59;;;;;;;10.50;3.88;;;;;;;;;;6092620;29;20249;-79
2023/08/03 14:21:22;;;;;;;6.63;3.80;;;;;;;;;;6097879;29;20255;-79
2023/08/03 14:24:46;;;;;;;5.45;3.05;;;;;;;;;;6095107;29;20296;-78
2023/08/03 14:27:53;;;;;;;9.90;4.75;;;;;;;;;;6092693;29;20260;-77
2023/08/03 14:31:00;;;;;;;5.43;4.47;;;;;;;;;;6093109;29;20280;-78
2023/08/03 14:34:06;;;;;;;4.22;3.75;;;;;;;;;;6092798;29;20308;-78
2023/08/03 14:37:09;;;;;;;3.65;3.33;;;;;;;;;;6092985;29;20252;-78
2023/08/03 14:40:13;;;;;;;4.45;4.05;;;;;;;;;;6092147;29;20312;-78
2023/08/03 14:43:17;;;;;;;4.53;4.10;;;;;;;;;;6092369;29;20292;-77
2023/08/03 14:46:21;;;;;;;3.70;3.50;;;;;;;;;;6092870;29;20240;-78
2023/08/03 14:49:26;;;;;;;4.32;3.33;;;;;;;;;;6092440;29;20308;-76
2023/08/03 14:52:30;;;;;;;6.25;5.25;;;;;;;;;;6092931;29;20245;-78
2023/08/03 14:55:34;;;;;;;6.25;5.80;;;;;;;;;;6092535;29;20617;-78
2023/08/03 14:58:58;;;;;;;7.15;6.47;;;;;;;;;;6092047;29;20296;-78
2023/08/03 15:02:02;;;;;;;4.45;3.97;;;;;;;;;;6092380;29;20433;-78
2023/08/03 15:05:08;;;;;;;4.28;3.92;;;;;;;;;;6092004;29;20292;-78
2023/08/03 15:08:12;;;;;;;4.38;3.50;;;;;;;;;;6092209;29;20303;-78
2023/08/03 15:11:16;;;;;;;3.97;3.67;;;;;;;;;;6080118;29;20265;-80
2023/08/03 15:14:20;;;;;;;4.22;3.47;;;;;;;;;;6068913;29;20589;-79
2023/08/03 15:17:27;;;;;;;4.15;3.85;;;;;;;;;;6069357;29;20250;-79
2023/08/03 15:20:41;;;;;;;3.88;3.63;;;;;;;;;;6070447;29;20301;-80
2023/08/03 15:23:47;;;;;;;5.07;3.90;;;;;;;;;;6071120;29;20297;-80
2023/08/03 15:26:51;;;;;;;8.98;4.40;;;;;;;;;;6072180;29;20265;-79
2023/08/03 15:29:58;;;;;;;8.55;5.10;;;;;;;;;;6075293;29;20302;-79
2023/08/03 15:33:04;;;;;;;8.60;5.05;;;;;;;;;;6072979;29;20246;-78
2023/08/03 15:36:12;;;;;;;4.93;4.40;;;;;;;;;;6070749;29;20515;-79
2023/08/03 15:39:18;;;;;;;7.55;4.90;;;;;;;;;;6070175;29;20451;-77
2023/08/03 15:42:25;;;;;;;5.88;4.95;;;;;;;;;;6071210;29;20238;-78
2023/08/03 15:45:36;;;;;;;4.30;3.95;;;;;;;;;;6071384;29;20317;-77
2023/08/03 15:48:45;;;;;;;10.90;4.97;;;;;;;;;;6071279;29;20324;-76
2023/08/03 15:51:52;;;;;;;4.60;4.30;;;;;;;;;;6071675;29;20281;-75
2023/08/03 15:55:03;;;;;;;6.75;5.03;;;;;;;;;;6072932;29;20589;-75
2023/08/03 15:58:10;;;;;;;6.53;5.15;;;;;;;;;;6072822;29;20254;-75
2023/08/03 16:01:14;;;;;;;6.28;5.25;;;;;;;;;;6072919;29;20246;-75
2023/08/03 16:04:18;;;;;;;7.00;6.40;;;;;;;;;;6073064;29;20300;-79
2023/08/03 16:07:23;;;;;;;6.25;5.65;;;;;;;;;;6076254;29;20288;-79
2023/08/03 16:10:27;;;;;;;5.85;5.43;;;;;;;;;;6082346;29;20306;-79
2023/08/03 16:13:32;;;;;;;7.13;5.88;;;;;;;;;;6099295;29;20297;-79
2023/08/03 16:16:36;;;;;;;6.00;5.40;;;;;;;;;;6107159;29;20237;-79
2023/08/03 16:19:40;;;;;;;9.10;5.85;;;;;;;;;;6105203;29;20248;-80
2023/08/03 16:22:45;;;;;;;7.68;5.82;;;;;;;;;;6105640;29;20348;-80
2023/08/03 16:25:49;;;;;;;7.00;6.05;;;;;;;;;;6105839;29;20296;-77
2023/08/03 16:28:53;;;;;;;8.07;6.53;;;;;;;;;;6103388;29;20292;-79
2023/08/03 16:31:57;;;;;;;7.40;6.25;;;;;;;;;;6103192;29;20257;-80
2023/08/03 16:35:00;;;;;;;7.22;6.57;;;;;;;;;;6105924;29;20356;-80
2023/08/03 16:38:08;;;;;;;8.75;6.60;;;;;;;;;;6108973;29;20246;-78
2023/08/03 16:41:13;;;;;;;7.60;6.85;;;;;;;;;;6106996;29;20228;-77
2023/08/03 16:44:16;;;;;;;6.63;5.93;;;;;;;;;;6102552;29;20301;-77
2023/08/03 16:47:20;;;;;;;6.20;5.70;;;;;;;;;;6105652;29;20497;-78
2023/08/03 16:50:24;;;;;;;7.07;6.30;;;;;;;;;;6108659;29;20313;-80
2023/08/03 16:53:30;;;;;;;8.48;6.20;;;;;;;;;;6109532;29;20261;-79
2023/08/03 16:56:33;;;;;;;8.30;6.40;;;;;;;;;;6109099;29;20208;-80
2023/08/03 16:59:37;;;;;;;6.65;6.15;;;;;;;;;;6105307;29;20259;-81
2023/08/03 17:02:41;;;;;;;6.22;5.65;;;;;;;;;;6101185;29;20237;-77
2023/08/03 17:05:45;;;;;;;7.65;5.78;;;;;;;;;;6101714;29;20304;-81
2023/08/03 17:08:50;;;;;;;8.40;6.43;;;;;;;;;;6095888;29;20296;-84
2023/08/03 17:11:54;;;;;;;7.07;5.85;;;;;;;;;;6082180;29;20273;-79
2023/08/03 17:14:58;;;;;;;7.68;6.30;;;;;;;;;;6077393;29;20324;-78
2023/08/03 17:18:02;;;;;;;5.78;5.18;;;;;;;;;;6071162;29;20337;-82
2023/08/03 17:21:07;;;;;;;9.15;6.25;;;;;;;;;;6071636;29;20249;-82
2023/08/03 17:24:12;;;;;;;8.65;5.47;;;;;;;;;;6071313;29;20599;-81
2023/08/03 17:27:16;;;;;;;9.07;6.00;;;;;;;;;;6071300;29;20257;-81
2023/08/03 17:30:20;;;;;;;10.18;5.63;;;;;;;;;;6070985;29;20301;-82
2023/08/03 17:33:24;;;;;;;7.28;5.72;;;;;;;;;;6070821;29;20292;-81
2023/08/03 17:36:27;;;;;;;6.97;5.40;;;;;;;;;;6071199;29;20487;-80
2023/08/03 17:39:33;;;;;;;11.43;6.70;;;;;;;;;;6070496;29;20301;-81
2023/08/03 17:42:36;;;;;;;5.45;4.75;;;;;;;;;;6070738;29;20429;-80
2023/08/03 17:45:40;;;;;;;11.82;5.25;;;;;;;;;;6070232;29;20301;-80
2023/08/03 17:48:44;;;;;;;8.63;4.85;;;;;;;;;;6070520;29;20312;-81
2023/08/03 17:51:48;;;;;;;4.72;4.32;;;;;;;;;;6070999;29;20268;-83
2023/08/03 17:54:53;;;;;;;4.43;4.00;;;;;;;;;;6070372;29;20301;-79
2023/08/03 17:57:57;;;;;;;7.35;4.82;;;;;;;;;;6070180;29;20238;-78
2023/08/03 18:01:10;;;;;;;7.95;4.72;;;;;;;;;;6070265;29;20253;-79
2023/08/03 18:04:14;;;;;;;6.57;4.13;;;;;;;;;;6070173;29;20300;-77
2023/08/03 18:07:17;;;;;;;4.72;4.32;;;;;;;;;;6056161;29;20325;-77
2023/08/03 18:10:23;;;;;;;8.63;4.38;;;;;;;;;;6074879;29;20301;-78
2023/08/03 18:13:26;;;;;;;8.23;4.45;;;;;;;;;;6092461;29;20605;-76
2023/08/03 18:16:30;;;;;;;4.95;3.65;;;;;;;;;;6093747;29;20244;-80
2023/08/03 18:19:34;;;;;;;6.30;4.03;;;;;;;;;;6092749;29;20300;-80
2023/08/03 18:22:38;;;;;;;6.50;4.10;;;;;;;;;;6091805;29;20460;-80
2023/08/03 18:25:43;;;;;;;8.27;4.38;;;;;;;;;;6092722;29;20304;-80
2023/08/03 18:28:47;;;;;;;8.45;4.13;;;;;;;;;;6092921;29;20308;-81
2023/08/03 18:31:51;;;;;;;8.13;4.25;;;;;;;;;;6093303;29;20281;-81